createdAt,value
2023-04-11T00:00:50.567Z,8.94
2023-04-11T00:03:30.246Z,8.85
2023-04-11T00:06:11.244Z,8.80
2023-04-11T00:08:51.092Z,8.81
2023-04-11T00:11:32.277Z,8.80
2023-04-11T00:14:09.941Z,8.79
2023-04-11T00:16:50.161Z,8.73
2023-04-11T00:19:30.154Z,8.64
2023-04-11T00:22:10.472Z,8.63
2023-04-11T00:24:50.864Z,8.58
2023-04-11T00:27:22.044Z,8.49
2023-04-11T00:30:01.718Z,8.47
2023-04-11T00:32:41.199Z,8.49
2023-04-11T00:35:20.634Z,8.58
2023-04-11T00:38:02.513Z,8.59
2023-04-11T00:40:42.343Z,8.52
2023-04-11T00:43:21.967Z,8.45
2023-04-11T00:45:59.910Z,8.42
2023-04-11T00:48:41.590Z,8.42
2023-04-11T00:51:24.037Z,8.35
2023-04-11T00:54:03.421Z,8.30
2023-04-11T00:56:43.184Z,8.26
2023-04-11T00:59:22.465Z,8.23
2023-04-11T01:02:02.222Z,8.21
2023-04-11T01:04:41.576Z,8.15
2023-04-11T01:07:22.056Z,8.13
2023-04-11T01:10:02.432Z,8.19
2023-04-11T01:12:33.748Z,8.28
2023-04-11T01:15:14.942Z,8.36
2023-04-11T01:17:55.785Z,8.32
2023-04-11T01:20:35.099Z,8.27
2023-04-11T01:23:16.725Z,8.27
2023-04-11T01:25:56.157Z,8.29
2023-04-11T01:28:34.720Z,8.30
2023-04-11T01:31:07.378Z,8.27
2023-04-11T01:33:47.870Z,8.21
2023-04-11T01:36:27.388Z,8.19
2023-04-11T01:39:07.757Z,8.15
2023-04-11T01:41:48.230Z,8.01
2023-04-11T01:44:29.111Z,7.90
2023-04-11T01:47:10.531Z,7.84
2023-04-11T01:49:51.019Z,7.78
2023-04-11T01:52:29.959Z,7.72
2023-04-11T01:55:00.196Z,7.82
2023-04-11T01:57:32.338Z,7.87
2023-04-11T02:00:12.005Z,7.90
2023-04-11T02:02:51.984Z,7.87
2023-04-11T02:05:31.656Z,7.84
2023-04-11T02:08:12.541Z,7.85
2023-04-11T02:10:51.806Z,7.79
2023-04-11T02:13:32.153Z,7.80
2023-04-11T02:16:24.695Z,7.82
2023-04-11T02:18:54.970Z,7.85
2023-04-11T02:21:32.494Z,7.88
2023-04-11T02:24:02.637Z,7.89
2023-04-11T02:26:43.319Z,7.93
2023-04-11T02:29:22.999Z,7.92
2023-04-11T02:32:02.300Z,7.85
2023-04-11T02:34:41.840Z,7.75
2023-04-11T02:37:22.124Z,7.70
2023-04-11T02:40:01.562Z,7.67
2023-04-11T02:42:37.531Z,7.59
2023-04-11T02:45:17.699Z,7.48
2023-04-11T02:47:57.301Z,7.45
2023-04-11T02:50:36.629Z,7.38
2023-04-11T02:53:16.813Z,7.29
2023-04-11T02:55:56.143Z,7.21
2023-04-11T02:58:39.512Z,7.20
2023-04-11T03:01:19.216Z,7.19
2023-04-11T03:03:58.505Z,7.27
2023-04-11T03:06:37.969Z,7.34
2023-04-11T03:09:17.496Z,7.36
2023-04-11T03:11:47.916Z,7.33
2023-04-11T03:14:19.371Z,7.30
2023-04-11T03:16:54.511Z,7.23
2023-04-11T03:19:34.092Z,7.21
2023-04-11T03:22:12.075Z,7.19
2023-04-11T03:24:52.185Z,7.13
2023-04-11T03:27:32.062Z,7.10
2023-04-11T03:30:13.238Z,6.97
2023-04-11T03:32:54.918Z,6.85
2023-04-11T03:35:34.315Z,6.82
2023-04-11T03:38:14.164Z,6.79
2023-04-11T03:40:51.600Z,6.77
2023-04-11T03:43:31.820Z,6.82
2023-04-11T03:46:11.640Z,6.79
2023-04-11T03:48:50.428Z,6.78
2023-04-11T03:51:29.146Z,6.81
2023-04-11T03:53:59.886Z,6.72
2023-04-11T03:56:38.973Z,6.66
2023-04-11T03:59:18.198Z,6.62
2023-04-11T04:01:56.767Z,6.55
2023-04-11T04:04:36.906Z,6.54
2023-04-11T04:07:18.463Z,6.62
2023-04-11T04:09:57.069Z,6.61
2023-04-11T04:12:35.881Z,6.61
2023-04-11T04:15:15.083Z,6.66
2023-04-11T04:17:54.319Z,6.62
2023-04-11T04:20:33.158Z,6.60
2023-04-11T04:23:14.352Z,6.65
2023-04-11T04:25:53.506Z,6.71
2023-04-11T04:28:23.996Z,6.68
2023-04-11T04:30:58.770Z,6.60
2023-04-11T04:33:36.799Z,6.67
2023-04-11T04:36:18.331Z,6.76
2023-04-11T04:39:02.411Z,6.87
2023-04-11T04:41:35.006Z,6.91
2023-04-11T04:44:16.318Z,6.93
2023-04-11T04:46:57.023Z,6.85
2023-04-11T04:49:35.629Z,6.84
2023-04-11T04:52:15.868Z,6.90
2023-04-11T04:54:58.266Z,7.04
2023-04-11T04:57:37.001Z,7.09
2023-04-11T05:00:17.331Z,7.12
2023-04-11T05:02:57.174Z,7.10
2023-04-11T05:05:36.838Z,7.11
2023-04-11T05:08:17.521Z,7.10
2023-04-11T05:10:47.907Z,7.13
2023-04-11T05:13:27.466Z,7.21
2023-04-11T05:16:07.191Z,7.34
2023-04-11T05:18:46.744Z,7.54
2023-04-11T05:21:27.063Z,7.66
2023-04-11T05:24:06.197Z,7.67
2023-04-11T05:26:44.664Z,7.75
2023-04-11T05:29:15.977Z,7.77
2023-04-11T05:31:55.548Z,7.84
2023-04-11T05:34:52.342Z,7.93
2023-04-11T05:37:32.684Z,7.98
2023-04-11T05:40:13.377Z,8.06
2023-04-11T05:42:51.809Z,8.20
2023-04-11T05:45:30.559Z,8.21
2023-04-11T05:48:10.697Z,8.26
2023-04-11T05:50:49.379Z,8.42
2023-04-11T05:53:28.007Z,8.59
2023-04-11T05:55:59.288Z,8.84
2023-04-11T05:58:38.525Z,9.10
2023-04-11T06:01:18.842Z,9.35
2023-04-11T06:03:58.037Z,9.77
2023-04-11T06:06:37.330Z,10.45
2023-04-11T06:09:15.842Z,11.27
2023-04-11T06:11:53.940Z,12.19
2023-04-11T06:14:24.193Z,13.19
2023-04-11T06:17:00.323Z,13.90
2023-04-11T06:19:39.501Z,14.25
2023-04-11T06:22:18.092Z,14.90
2023-04-11T06:24:57.953Z,15.21
2023-04-11T06:27:28.441Z,15.17
2023-04-11T06:30:07.840Z,15.22
2023-04-11T06:32:38.556Z,15.50
2023-04-11T06:35:20.865Z,15.74
2023-04-11T06:37:58.968Z,15.82
2023-04-11T06:40:30.414Z,16.38
2023-04-11T06:43:02.389Z,16.37
2023-04-11T06:45:40.613Z,16.40
2023-04-11T06:48:18.734Z,16.55
2023-04-11T06:50:56.693Z,16.53
2023-04-11T06:53:35.688Z,16.52
2023-04-11T06:56:14.869Z,16.67
2023-04-11T06:58:53.994Z,16.77
2023-04-11T07:01:41.152Z,16.84
2023-04-11T07:04:20.257Z,16.55
2023-04-11T07:06:59.658Z,16.59
2023-04-11T07:09:38.132Z,16.50
2023-04-11T07:12:16.895Z,16.56
2023-04-11T07:14:55.238Z,16.58
2023-04-11T07:17:26.557Z,16.79
2023-04-11T07:20:09.772Z,17.02
2023-04-11T07:22:52.633Z,17.07
2023-04-11T07:25:33.980Z,17.27
2023-04-11T07:28:13.244Z,17.52
2023-04-11T07:30:52.885Z,17.49
2023-04-11T07:33:23.484Z,17.59
2023-04-11T07:36:03.931Z,17.88
2023-04-11T07:38:34.939Z,17.96
2023-04-11T07:41:06.710Z,18.05
2023-04-11T07:43:45.136Z,17.96
2023-04-11T07:46:22.425Z,17.68
2023-04-11T07:49:01.341Z,17.92
2023-04-11T07:51:40.193Z,18.39
2023-04-11T07:54:19.988Z,18.61
2023-04-11T07:56:59.558Z,18.59
2023-04-11T07:59:38.283Z,18.54
2023-04-11T08:02:17.681Z,18.61
2023-04-11T08:04:48.892Z,18.61
2023-04-11T08:07:28.967Z,18.89
2023-04-11T08:10:07.830Z,19.05
2023-04-11T08:12:39.098Z,19.39
2023-04-11T08:15:19.546Z,19.50
2023-04-11T08:18:00.037Z,19.72
2023-04-11T08:20:30.557Z,19.95
2023-04-11T08:23:10.184Z,19.89
2023-04-11T08:25:44.269Z,19.85
2023-04-11T08:28:23.623Z,20.09
2023-04-11T08:31:05.454Z,20.27
2023-04-11T08:33:44.742Z,20.16
2023-04-11T08:36:24.344Z,20.15
2023-04-11T08:39:02.876Z,20.01
2023-04-11T08:41:39.825Z,20.31
2023-04-11T08:44:19.731Z,20.55
2023-04-11T08:46:58.632Z,20.11
2023-04-11T08:49:37.448Z,19.75
2023-04-11T08:52:15.896Z,19.50
2023-04-11T08:54:59.322Z,19.48
2023-04-11T08:57:38.568Z,19.58
2023-04-11T09:00:19.474Z,19.70
2023-04-11T09:03:11.243Z,19.68
2023-04-11T09:05:47.798Z,19.60
2023-04-11T09:08:40.460Z,18.83
2023-04-11T09:11:12.281Z,18.40
2023-04-11T09:13:46.347Z,18.61
2023-04-11T09:16:25.888Z,18.83
2023-04-11T09:19:04.128Z,19.30
2023-04-11T09:21:50.605Z,19.43
2023-04-11T09:24:35.181Z,19.76
2023-04-11T09:27:22.486Z,19.70
2023-04-11T09:29:55.816Z,19.88
2023-04-11T09:32:33.364Z,19.66
2023-04-11T09:35:26.635Z,19.43
2023-04-11T09:38:10.038Z,19.33
2023-04-11T09:40:53.317Z,19.17
2023-04-11T09:43:53.549Z,18.92
2023-04-11T09:46:26.817Z,18.91
2023-04-11T09:49:07.115Z,19.07
2023-04-11T09:51:47.154Z,19.29
2023-04-11T09:54:27.745Z,19.35
2023-04-11T09:57:07.021Z,19.11
2023-04-11T09:59:47.247Z,19.06
2023-04-11T10:02:24.761Z,18.89
2023-04-11T10:05:06.140Z,18.51
2023-04-11T10:07:52.979Z,18.23
2023-04-11T10:10:28.365Z,18.28
2023-04-11T10:13:26.293Z,18.27
2023-04-11T10:16:24.650Z,18.12
2023-04-11T10:19:02.264Z,17.96
2023-04-11T10:21:43.576Z,18.10
2023-04-11T10:24:24.333Z,18.26
2023-04-11T10:27:04.543Z,18.32
2023-04-11T10:29:51.572Z,18.60
2023-04-11T10:32:29.017Z,18.53
2023-04-11T10:35:25.434Z,18.47
2023-04-11T10:38:04.516Z,18.51
2023-04-11T10:40:37.637Z,18.50
2023-04-11T10:43:29.808Z,18.45
2023-04-11T10:46:29.342Z,18.54
2023-04-11T10:49:08.594Z,18.44
2023-04-11T10:51:48.628Z,18.40
2023-04-11T10:54:29.140Z,18.49
2023-04-11T10:57:08.385Z,18.25
2023-04-11T10:59:39.035Z,17.99
2023-04-11T11:02:22.327Z,18.09
2023-04-11T11:05:02.163Z,18.03
2023-04-11T11:07:43.072Z,18.00
2023-04-11T11:10:15.620Z,17.94
2023-04-11T11:13:01.932Z,17.75
2023-04-11T11:15:41.661Z,17.74
2023-04-11T11:18:20.837Z,17.70
2023-04-11T11:21:02.175Z,17.47
2023-04-11T11:23:40.679Z,17.30
2023-04-11T11:26:20.435Z,17.13
2023-04-11T11:29:00.525Z,16.98
2023-04-11T11:31:50.893Z,16.87
2023-04-11T11:34:33.601Z,16.76
2023-04-11T11:37:10.255Z,16.91
2023-04-11T11:39:50.550Z,17.01
2023-04-11T11:42:29.847Z,17.05
2023-04-11T11:45:17.904Z,16.96
2023-04-11T11:47:51.907Z,16.85
2023-04-11T11:50:32.618Z,16.72
2023-04-11T11:53:17.055Z,16.75
2023-04-11T11:55:53.380Z,16.78
2023-04-11T11:58:46.977Z,16.83
2023-04-11T12:01:19.762Z,16.72
2023-04-11T12:03:54.304Z,16.62
2023-04-11T12:06:34.444Z,16.58
2023-04-11T12:09:14.076Z,16.57
2023-04-11T12:11:56.493Z,16.59
2023-04-11T12:14:31.592Z,16.58
2023-04-11T12:17:11.754Z,16.64
2023-04-11T12:19:50.234Z,16.65
2023-04-11T12:22:28.390Z,16.65
2023-04-11T12:25:13.751Z,16.72
2023-04-11T12:27:51.717Z,16.90
2023-04-11T12:30:30.908Z,17.04
2023-04-11T12:33:10.588Z,17.22
2023-04-11T12:35:49.355Z,17.33
2023-04-11T12:38:28.057Z,17.35
2023-04-11T12:41:30.336Z,17.42
2023-04-11T12:44:02.759Z,17.37
2023-04-11T12:46:34.458Z,17.37
2023-04-11T12:49:12.214Z,17.43
2023-04-11T12:51:42.749Z,17.30
2023-04-11T12:54:22.309Z,17.36
2023-04-11T12:57:00.728Z,17.24
2023-04-11T12:59:39.582Z,17.16
2023-04-11T13:02:19.075Z,17.09
2023-04-11T13:05:00.557Z,16.98
2023-04-11T13:07:41.319Z,16.93
2023-04-11T13:10:20.198Z,16.88
2023-04-11T13:13:00.620Z,16.93
2023-04-11T13:15:47.096Z,17.01
2023-04-11T13:18:26.167Z,17.02
2023-04-11T13:21:06.156Z,17.10
2023-04-11T13:23:44.851Z,17.03
2023-04-11T13:26:24.058Z,17.10
2023-04-11T13:28:54.450Z,17.13
2023-04-11T13:31:34.913Z,17.12
2023-04-11T13:34:14.189Z,16.91
2023-04-11T13:36:53.415Z,16.73
2023-04-11T13:39:32.970Z,16.67
2023-04-11T13:42:12.638Z,16.76
2023-04-11T13:44:43.283Z,16.85
2023-04-11T13:47:15.038Z,16.91
2023-04-11T13:49:47.469Z,16.89
2023-04-11T13:52:27.629Z,16.90
2023-04-11T13:55:07.511Z,16.91
2023-04-11T13:57:46.506Z,16.96
2023-04-11T14:00:25.595Z,16.90
2023-04-11T14:03:04.523Z,16.86
2023-04-11T14:05:43.706Z,16.87
2023-04-11T14:08:22.693Z,16.83
2023-04-11T14:11:01.733Z,16.80
2023-04-11T14:13:40.973Z,16.70
2023-04-11T14:16:20.862Z,16.62
2023-04-11T14:19:00.364Z,16.54
2023-04-11T14:21:38.705Z,16.50
2023-04-11T14:24:20.120Z,16.57
2023-04-11T14:26:59.749Z,16.57
2023-04-11T14:29:37.909Z,16.51
2023-04-11T14:32:16.513Z,16.52
2023-04-11T14:34:54.305Z,16.44
2023-04-11T14:37:33.535Z,16.34
2023-04-11T14:40:12.446Z,16.41
2023-04-11T14:42:51.575Z,16.49
2023-04-11T14:45:30.427Z,16.54
2023-04-11T14:48:00.865Z,16.50
2023-04-11T14:50:35.778Z,16.59
2023-04-11T14:53:13.989Z,16.64
2023-04-11T14:55:52.465Z,16.73
2023-04-11T14:58:30.909Z,16.70
2023-04-11T15:01:02.372Z,16.64
2023-04-11T15:03:41.275Z,16.64
2023-04-11T15:06:19.659Z,16.67
2023-04-11T15:08:58.776Z,16.58
2023-04-11T15:11:36.600Z,16.46
2023-04-11T15:14:14.639Z,16.43
2023-04-11T15:16:52.811Z,16.40
2023-04-11T15:19:31.237Z,16.34
2023-04-11T15:22:11.553Z,16.30
2023-04-11T15:24:49.786Z,16.28
2023-04-11T15:27:20.169Z,16.23
2023-04-11T15:30:00.341Z,16.18
2023-04-11T15:32:36.503Z,16.13
2023-04-11T15:35:15.150Z,16.13
2023-04-11T15:37:52.772Z,16.06
2023-04-11T15:40:30.944Z,16.03
2023-04-11T15:43:11.096Z,15.98
2023-04-11T15:45:46.652Z,15.94
2023-04-11T15:48:23.967Z,15.89
2023-04-11T15:51:01.479Z,15.87
2023-04-11T15:53:38.806Z,15.84
2023-04-11T15:56:17.666Z,15.80
2023-04-11T15:58:56.007Z,15.81
2023-04-11T16:01:33.190Z,15.81
2023-04-11T16:04:11.645Z,15.82
2023-04-11T16:06:42.405Z,15.71
2023-04-11T16:09:19.188Z,15.63
2023-04-11T16:11:58.030Z,15.56
2023-04-11T16:14:38.449Z,15.55
2023-04-11T16:17:18.307Z,15.54
2023-04-11T16:19:57.830Z,15.52
2023-04-11T16:22:36.120Z,15.51
2023-04-11T16:25:16.579Z,15.46
2023-04-11T16:27:55.077Z,15.40
2023-04-11T16:30:28.471Z,15.32
2023-04-11T16:33:10.301Z,15.26
2023-04-11T16:35:49.329Z,15.22
2023-04-11T16:38:27.480Z,15.17
2023-04-11T16:41:02.721Z,15.13
2023-04-11T16:43:43.795Z,15.05
2023-04-11T16:46:23.684Z,14.97
2023-04-11T16:48:55.534Z,14.94
2023-04-11T16:51:36.966Z,14.91
2023-04-11T16:54:15.074Z,14.88
2023-04-11T16:56:53.938Z,14.83
2023-04-11T16:59:36.318Z,14.78
2023-04-11T17:02:16.738Z,14.73
2023-04-11T17:04:55.828Z,14.70
2023-04-11T17:07:35.270Z,14.68
2023-04-11T17:10:13.912Z,14.64
2023-04-11T17:12:44.892Z,14.61
2023-04-11T17:15:22.058Z,14.60
2023-04-11T17:18:00.349Z,14.57
2023-04-11T17:20:38.906Z,14.54
2023-04-11T17:23:16.646Z,14.51
2023-04-11T17:26:00.071Z,14.49
2023-04-11T17:28:38.906Z,14.48
2023-04-11T17:31:21.092Z,14.45
2023-04-11T17:34:00.294Z,14.43
2023-04-11T17:36:43.245Z,14.39
2023-04-11T17:39:23.005Z,14.34
2023-04-11T17:42:01.268Z,14.29
2023-04-11T17:44:41.418Z,14.24
2023-04-11T17:47:20.883Z,14.20
2023-04-11T17:50:00.156Z,14.16
2023-04-11T17:52:41.104Z,14.12
2023-04-11T17:55:21.525Z,14.07
2023-04-11T17:58:01.617Z,14.01
2023-04-11T18:00:55.001Z,13.96
2023-04-11T18:03:40.502Z,13.89
2023-04-11T18:06:20.147Z,13.84
2023-04-11T18:09:00.001Z,13.77
2023-04-11T18:11:42.518Z,13.72
2023-04-11T18:14:22.848Z,13.67
2023-04-11T18:17:02.520Z,13.63
2023-04-11T18:19:42.222Z,13.58
2023-04-11T18:22:22.039Z,13.53
2023-04-11T18:25:02.537Z,13.48
2023-04-11T18:27:42.664Z,13.44
2023-04-11T18:30:21.852Z,13.40
2023-04-11T18:33:01.074Z,13.37
2023-04-11T18:35:40.148Z,13.33
2023-04-11T18:38:19.380Z,13.29
2023-04-11T18:40:54.514Z,13.25
2023-04-11T18:43:26.956Z,13.20
2023-04-11T18:46:03.715Z,13.17
2023-04-11T18:48:42.418Z,13.12
2023-04-11T18:51:22.378Z,13.07
2023-04-11T18:54:00.964Z,13.02
2023-04-11T18:56:40.527Z,12.97
2023-04-11T18:59:24.927Z,12.93
2023-04-11T19:02:03.436Z,12.89
2023-04-11T19:04:44.154Z,12.87
2023-04-11T19:07:22.690Z,12.82
2023-04-11T19:10:00.956Z,12.78
2023-04-11T19:12:39.492Z,12.72
2023-04-11T19:15:18.445Z,12.68
2023-04-11T19:17:59.107Z,12.63
2023-04-11T19:20:38.822Z,12.57
2023-04-11T19:23:16.030Z,12.53
2023-04-11T19:25:55.094Z,12.49
2023-04-11T19:28:32.590Z,12.45
2023-04-11T19:31:10.951Z,12.40
2023-04-11T19:33:49.034Z,12.37
2023-04-11T19:36:26.985Z,12.32
2023-04-11T19:39:05.196Z,12.25
2023-04-11T19:41:47.895Z,12.21
2023-04-11T19:44:18.594Z,12.14
2023-04-11T19:46:51.934Z,12.09
2023-04-11T19:49:25.238Z,12.04
2023-04-11T19:52:03.966Z,11.98
2023-04-11T19:54:41.849Z,11.89
2023-04-11T19:57:19.830Z,11.80
2023-04-11T19:59:58.901Z,11.73
2023-04-11T20:02:37.964Z,11.66
2023-04-11T20:05:20.195Z,11.59
2023-04-11T20:07:58.598Z,11.52
2023-04-11T20:10:37.125Z,11.44
2023-04-11T20:13:14.953Z,11.39
2023-04-11T20:15:52.917Z,11.34
2023-04-11T20:18:30.861Z,11.28
2023-04-11T20:21:08.356Z,11.23
2023-04-11T20:23:45.756Z,11.17
2023-04-11T20:26:22.760Z,11.14
2023-04-11T20:29:00.948Z,11.08
2023-04-11T20:31:31.752Z,11.04
2023-04-11T20:34:09.274Z,11.00
2023-04-11T20:36:48.765Z,10.92
2023-04-11T20:39:26.283Z,10.85
2023-04-11T20:42:04.546Z,10.79
2023-04-11T20:44:37.211Z,10.78
2023-04-11T20:47:17.844Z,10.80
2023-04-11T20:49:56.484Z,10.82
2023-04-11T20:52:30.235Z,10.86
2023-04-11T20:55:09.053Z,10.89
2023-04-11T20:57:46.801Z,10.89
2023-04-11T21:00:20.294Z,10.92
2023-04-11T21:02:52.011Z,10.94
2023-04-11T21:05:27.393Z,10.95
2023-04-11T21:08:07.178Z,10.96
2023-04-11T21:10:45.574Z,10.98
2023-04-11T21:13:23.952Z,10.99
2023-04-11T21:16:01.761Z,11.02
2023-04-11T21:18:40.046Z,11.11
2023-04-11T21:21:19.285Z,11.20
2023-04-11T21:23:49.616Z,11.23
2023-04-11T21:26:29.000Z,11.20
2023-04-11T21:29:02.491Z,11.21
2023-04-11T21:31:33.325Z,11.25
2023-04-11T21:34:08.374Z,11.30
2023-04-11T21:36:46.745Z,11.30
2023-04-11T21:39:22.352Z,11.28
2023-04-11T21:42:01.588Z,11.23
2023-04-11T21:44:39.524Z,11.19
2023-04-11T21:47:20.076Z,11.14
2023-04-11T21:49:50.622Z,11.11
2023-04-11T21:52:31.378Z,11.07
2023-04-11T21:55:12.664Z,11.03
2023-04-11T21:57:51.332Z,11.00
2023-04-11T22:00:30.089Z,10.96
2023-04-11T22:03:12.339Z,10.90
2023-04-11T22:05:50.509Z,10.84
2023-04-11T22:08:29.738Z,10.79
2023-04-11T22:11:19.373Z,10.72
2023-04-11T22:13:58.786Z,10.67
2023-04-11T22:16:37.685Z,10.63
2023-04-11T22:19:21.063Z,10.59
2023-04-11T22:22:03.668Z,10.56
2023-04-11T22:24:41.947Z,10.54
2023-04-11T22:27:20.452Z,10.56
2023-04-11T22:30:02.653Z,10.58
2023-04-11T22:32:41.461Z,10.61
2023-04-11T22:35:20.340Z,10.63
2023-04-11T22:38:01.773Z,10.69
2023-04-11T22:40:41.532Z,10.73
2023-04-11T22:43:20.054Z,10.73
2023-04-11T22:46:00.736Z,10.68
2023-04-11T22:48:42.382Z,10.60
2023-04-11T22:51:22.315Z,10.56
2023-04-11T22:54:01.293Z,10.55
2023-04-11T22:56:39.401Z,10.52
2023-04-11T22:59:17.621Z,10.46
2023-04-11T23:01:55.897Z,10.38
2023-04-11T23:04:36.846Z,10.37
2023-04-11T23:07:17.231Z,10.38
2023-04-11T23:09:54.854Z,10.38
2023-04-11T23:12:33.312Z,10.36
2023-04-11T23:15:04.858Z,10.37
2023-04-11T23:17:44.077Z,10.35
2023-04-11T23:20:16.703Z,10.34
2023-04-11T23:22:51.196Z,10.34
2023-04-11T23:25:29.485Z,10.35
2023-04-11T23:28:08.920Z,10.31
2023-04-11T23:30:46.988Z,10.30
2023-04-11T23:33:25.988Z,10.29
2023-04-11T23:36:04.032Z,10.26
2023-04-11T23:38:42.242Z,10.23
2023-04-11T23:41:20.717Z,10.24
2023-04-11T23:44:00.010Z,10.25
2023-04-11T23:46:39.065Z,10.20
2023-04-11T23:49:16.818Z,10.19
2023-04-11T23:51:54.930Z,10.18
2023-04-11T23:54:33.119Z,10.15
2023-04-11T23:57:12.737Z,10.06
2023-04-11T23:59:50.947Z,9.93
